ADDS METAR Data INFO
IDs: Format: Raw Decoded Include TAF

Data at: 2036 UTC 16 Dec 2017

KRKR 162015Z AUTO 18008KT 10SM CLR 15/M05 A3004 RMK AO2
KRKR 161955Z AUTO 19012G16KT 10SM CLR 15/M05 A3004 RMK AO2
KRKR 161935Z AUTO 18013G21KT 10SM CLR 15/M04 A3005 RMK AO2
KRKR 161915Z AUTO 19011G15KT 10SM CLR 15/M03 A3007 RMK AO2
KRKR 161855Z AUTO 17007KT 10SM CLR 13/M03 A3007 RMK AO2
KRKR 161835Z AUTO 19010KT 10SM CLR 14/M03 A3009 RMK AO2
KRKR 161815Z AUTO 16004KT 10SM CLR 13/M03 A3009 RMK AO2
KRKR 161755Z AUTO 22004KT 10SM CLR 12/M03 A3011 RMK AO2
KRKR 161735Z AUTO 20005KT 10SM CLR 12/M03 A3013 RMK AO2
KRKR 161715Z AUTO 22007KT 10SM CLR 12/M03 A3014 RMK AO2
KRKR 161655Z AUTO 20011KT 10SM CLR 11/M03 A3016 RMK AO2
KRKR 161635Z AUTO 19009G15KT 10SM CLR 11/M02 A3015 RMK AO2
KRKR 161615Z AUTO 00000KT 10SM CLR 08/M02 A3015 RMK AO2
KRKR 161555Z AUTO 22003KT 10SM CLR 08/M02 A3016 RMK AO2
KRKR 161535Z AUTO 00000KT 10SM CLR 06/M01 A3016 RMK AO2
KRKR 161515Z AUTO 24003KT 10SM CLR 05/M02 A3015 RMK AO2
KRKR 161455Z AUTO 24004KT 10SM CLR 02/M02 A3015 RMK AO2
KRKR 161435Z AUTO 00000KT 10SM CLR M01/M02 A3015 RMK AO2
KRKR 161415Z AUTO 21004KT 10SM CLR M02/M04 A3015 RMK AO2
KRKR 161355Z AUTO 00000KT 10SM CLR M04/M06 A3015 RMK AO2
KRKR 161335Z AUTO 10SM CLR M03/M05 A3015 RMK AO2
KRKR 161315Z AUTO 00000KT 10SM CLR M03/M05 A3015 RMK AO2
KRKR 161255Z AUTO 00000KT 10SM CLR M03/M05 A3015 RMK AO2
KRKR 161235Z AUTO 00000KT 10SM CLR M03/M05 A3015 RMK AO2
KRKR 161215Z AUTO 00000KT 10SM CLR M03/M05 A3015 RMK AO2
KRKR 161155Z AUTO 00000KT 10SM CLR M03/M04 A3013 RMK AO2
KRKR 161135Z AUTO 18004KT 10SM CLR M03/M05 A3013 RMK AO2
KRKR 161115Z AUTO 19004KT 10SM CLR M03/M05 A3013 RMK AO2
KRKR 161055Z AUTO 00000KT 10SM CLR M03/M03 A3013 RMK AO2
KRKR 161035Z AUTO 21004KT 10SM CLR M03/M05 A3013 RMK AO2
KRKR 161015Z AUTO 23003KT 10SM CLR M02/M03 A3013 RMK AO2
KRKR 160955Z AUTO 23005KT 10SM CLR M03/M04 A3013 RMK AO2
KRKR 160935Z AUTO 23004KT 10SM CLR M03/M05 A3013 RMK AO2
KRKR 160915Z AUTO 22006KT 10SM CLR M02/M04 A3015 RMK AO2
KRKR 160855Z AUTO 24006KT 10SM CLR 00/M03 A3015 RMK AO2
KRKR 160835Z AUTO 22006KT 10SM CLR 00/M03 A3015 RMK AO2
KRKR 160815Z AUTO 24006KT 10SM CLR M03/M03 A3015 RMK AO2
KRKR 160755Z AUTO 00000KT 10SM CLR M03/M04 A3015 RMK AO2
KRKR 160735Z AUTO 22004KT 10SM CLR M03/M03 A3015 RMK AO2
KRKR 160715Z AUTO 00000KT 10SM CLR M03/M03 A3015 RMK AO2
KRKR 160655Z AUTO 00000KT 10SM CLR M02/M02 A3015 RMK AO2
KRKR 160635Z AUTO 00000KT 10SM CLR M02/M03 A3017 RMK AO2
KRKR 160615Z AUTO 20003KT 10SM CLR M02/M02 A3017 RMK AO2
KRKR 160555Z AUTO 00000KT 10SM CLR M02/M03 A3017 RMK AO2
KRKR 160535Z AUTO 00000KT 10SM CLR 00/M02 A3017 RMK AO2
KRKR 160515Z AUTO 00000KT 10SM CLR 00/M02 A3018 RMK AO2
KRKR 160455Z AUTO 23003KT 10SM CLR 00/M02 A3017 RMK AO2
KRKR 160435Z AUTO 24004KT 10SM CLR 00/M02 A3017 RMK AO2
KRKR 160415Z AUTO 23005KT 10SM CLR 01/M02 A3018 RMK AO2
KRKR 160355Z AUTO 24004KT 10SM CLR 00/M03 A3018 RMK AO2
KRKR 160335Z AUTO 23003KT 10SM CLR 00/M02 A3018 RMK AO2
KRKR 160315Z AUTO 00000KT 10SM CLR M02/M03 A3018 RMK AO2
KRKR 160255Z AUTO 00000KT 10SM CLR M01/M03 A3018 RMK AO2
KRKR 160235Z AUTO 00000KT 10SM CLR M01/M02 A3019 RMK AO2
KRKR 160215Z AUTO 00000KT 10SM CLR 00/M02 A3019 RMK AO2
KRKR 160155Z AUTO 00000KT 10SM CLR 00/M02 A3020 RMK AO2
KRKR 160135Z AUTO 00000KT 10SM CLR 00/M02 A3020 RMK AO2
KRKR 160115Z AUTO 00000KT 10SM CLR 00/M02 A3020 RMK AO2
KRKR 160055Z AUTO 00000KT 10SM CLR 02/M02 A3020 RMK AO2
KRKR 160035Z AUTO 00000KT 10SM CLR 02/M02 A3019 RMK AO2
KRKR 160015Z AUTO 00000KT 10SM CLR 04/M02 A3018 RMK AO2
KRKR 152355Z AUTO 00000KT 10SM CLR 03/M02 A3018 RMK AO2
KRKR 152335Z AUTO 19003KT 10SM CLR 05/M03 A3017 RMK AO2
KRKR 152315Z AUTO 23003KT 10SM CLR 07/M03 A3017 RMK AO2
KRKR 152255Z AUTO 00000KT 10SM CLR 08/M03 A3018 RMK AO2
KRKR 152235Z AUTO 00000KT 10SM CLR 09/M02 A3018 RMK AO2
KRKR 152215Z AUTO 26003KT 10SM CLR 10/M02 A3018 RMK AO2
KRKR 152155Z AUTO 28003KT 10SM CLR 10/M02 A3019 RMK AO2
KRKR 152135Z AUTO 00000KT 10SM CLR 10/M03 A3019 RMK AO2
KRKR 152115Z AUTO 23006KT 10SM CLR 10/M02 A3019 RMK AO2
KRKR 152055Z AUTO 22004KT 10SM CLR 10/M02 A3020 RMK AO2
KRKR 152035Z AUTO 28005KT 10SM SCT045 10/M02 A3020 RMK AO2
KRKR 152015Z AUTO 32003KT 10SM SCT043 10/M02 A3020 RMK AO2
KRKR 151955Z AUTO 26006KT 10SM SCT041 10/M02 A3021 RMK AO2
KRKR 151935Z AUTO 24004KT 10SM SCT041 10/M02 A3021 RMK AO2
KRKR 151915Z AUTO 27008KT 10SM BKN037 10/M01 A3021 RMK AO2
KRKR 151855Z AUTO 00000KT 10SM OVC035 09/00 A3022 RMK AO2
KRKR 151835Z AUTO 00000KT 10SM BKN033 08/00 A3023 RMK AO2
KRKR 151815Z AUTO 00000KT 10SM SCT031 SCT038 07/00 A3024 RMK AO2
KRKR 151755Z AUTO 00000KT 10SM BKN027 BKN034 07/00 A3025 RMK AO2
KRKR 151735Z AUTO 00000KT 10SM OVC027 06/00 A3027 RMK AO2
KRKR 151715Z AUTO 00000KT 10SM BKN025 06/00 A3027 RMK AO2
KRKR 151655Z AUTO 00000KT 10SM SCT027 07/00 A3028 RMK AO2
KRKR 151635Z AUTO 21004KT 10SM CLR 06/00 A3028 RMK AO2
KRKR 151615Z AUTO 21003KT 10SM CLR 05/00 A3028 RMK AO2
KRKR 151555Z AUTO 18003KT 10SM CLR 03/00 A3029 RMK AO2
KRKR 151535Z AUTO 18005KT 10SM CLR 02/00 A3028 RMK AO2
KRKR 151515Z AUTO 00000KT 10SM SCT037 00/M01 A3027 RMK AO2
KRKR 151455Z AUTO 18005KT 10SM SCT037 M01/M02 A3027 RMK AO2
KRKR 151435Z AUTO 18006KT 10SM CLR M01/M02 A3027 RMK AO2
KRKR 151415Z AUTO 10SM CLR M02/M03 A3026 RMK AO2
KRKR 151355Z AUTO 16004KT 10SM CLR M02/M03 A3026 RMK AO2
KRKR 151335Z AUTO 18004KT 10SM CLR M02/M03 A3025 RMK AO2
KRKR 151315Z AUTO 00000KT 10SM CLR M03/M04 A3025 RMK AO2
KRKR 151255Z AUTO 00000KT 10SM CLR M03/M03 A3023 RMK AO2
KRKR 151235Z AUTO 21005KT 10SM CLR M03/M04 A3023 RMK AO2
KRKR 151215Z AUTO 19007KT 10SM CLR M03/M05 A3023 RMK AO2
KRKR 151155Z AUTO 18005KT 10SM CLR M03/M05 A3022 RMK AO2
KRKR 151135Z AUTO 17004KT 10SM CLR M02/M03 A3021 RMK AO2
KRKR 151115Z AUTO 00000KT 10SM CLR M03/M03 A3021 RMK AO2
KRKR 151055Z AUTO 22003KT 10SM CLR M03/M03 A3021 RMK AO2
KRKR 151035Z AUTO 20004KT 10SM CLR M03/M03 A3020 RMK AO2
KRKR 151015Z AUTO 19005KT 10SM CLR M04/M05 A3021 RMK AO2
KRKR 150955Z AUTO 17004KT 10SM CLR M03/M03 A3021 RMK AO2
KRKR 150935Z AUTO 18005KT 10SM CLR M02/M03 A3021 RMK AO2
KRKR 150915Z AUTO 18004KT 10SM CLR M02/M03 A3021 RMK AO2
KRKR 150855Z AUTO 19005KT 10SM CLR M02/M03 A3021 RMK AO2